sensor_id;sensor_type;location;lat;lon;timestamp;pressure;altitude;pressure_sealevel;temperature;humidity
20971;BME280;10644;48.834;10.088;2023-04-07T00:02:28;96700.44;;;12.47;42.56
20971;BME280;10644;48.834;10.088;2023-04-07T00:04:53;96712.63;;;12.30;43.43
20971;BME280;10644;48.834;10.088;2023-04-07T00:07:18;96714.09;;;12.20;43.94
20971;BME280;10644;48.834;10.088;2023-04-07T00:09:53;96711.72;;;12.03;43.82
20971;BME280;10644;48.834;10.088;2023-04-07T00:12:18;96714.09;;;12.06;43.83
20971;BME280;10644;48.834;10.088;2023-04-07T00:14:46;96703.38;;;11.99;43.85
20971;BME280;10644;48.834;10.088;2023-04-07T00:17:12;96708.88;;;12.07;43.75
20971;BME280;10644;48.834;10.088;2023-04-07T00:19:37;96714.19;;;12.04;43.79
20971;BME280;10644;48.834;10.088;2023-04-07T00:22:02;96705.94;;;11.85;44.65
20971;BME280;10644;48.834;10.088;2023-04-07T00:24:28;96709.41;;;11.84;44.90
20971;BME280;10644;48.834;10.088;2023-04-07T00:26:56;96707.38;;;11.89;44.72
20971;BME280;10644;48.834;10.088;2023-04-07T00:29:21;96699.47;;;11.78;45.49
20971;BME280;10644;48.834;10.088;2023-04-07T00:31:50;96699.53;;;11.92;44.69
20971;BME280;10644;48.834;10.088;2023-04-07T00:34:15;96703.09;;;12.04;44.47
20971;BME280;10644;48.834;10.088;2023-04-07T00:36:41;96696.13;;;12.06;44.45
20971;BME280;10644;48.834;10.088;2023-04-07T00:39:06;96692.00;;;12.17;44.45
20971;BME280;10644;48.834;10.088;2023-04-07T00:41:33;96702.38;;;12.16;43.96
20971;BME280;10644;48.834;10.088;2023-04-07T00:44:01;96699.50;;;12.06;44.44
20971;BME280;10644;48.834;10.088;2023-04-07T00:46:27;96702.84;;;12.08;44.27
20971;BME280;10644;48.834;10.088;2023-04-07T00:48:52;96686.31;;;11.98;45.06
20971;BME280;10644;48.834;10.088;2023-04-07T00:51:25;96697.16;;;12.03;45.49
20971;BME280;10644;48.834;10.088;2023-04-07T00:54:00;96682.38;;;11.93;45.59
20971;BME280;10644;48.834;10.088;2023-04-07T00:56:26;96683.13;;;11.95;46.09
20971;BME280;10644;48.834;10.088;2023-04-07T00:58:55;96683.41;;;11.90;46.01
20971;BME280;10644;48.834;10.088;2023-04-07T01:01:31;96675.88;;;12.01;45.83
20971;BME280;10644;48.834;10.088;2023-04-07T01:06:49;96673.50;;;12.12;46.10
20971;BME280;10644;48.834;10.088;2023-04-07T01:09:18;96670.19;;;12.24;45.54
20971;BME280;10644;48.834;10.088;2023-04-07T01:12:17;96670.53;;;12.32;45.13
20971;BME280;10644;48.834;10.088;2023-04-07T01:14:50;96671.09;;;12.37;45.88
20971;BME280;10644;48.834;10.088;2023-04-07T01:17:18;96664.94;;;12.26;47.63
20971;BME280;10644;48.834;10.088;2023-04-07T01:19:48;96663.78;;;12.03;47.30
20971;BME280;10644;48.834;10.088;2023-04-07T01:22:17;96659.19;;;12.08;46.86
20971;BME280;10644;48.834;10.088;2023-04-07T01:27:20;96652.97;;;12.12;47.92
20971;BME280;10644;48.834;10.088;2023-04-07T01:29:51;96656.78;;;11.77;49.71
20971;BME280;10644;48.834;10.088;2023-04-07T01:32:18;96655.81;;;11.94;48.76
20971;BME280;10644;48.834;10.088;2023-04-07T01:34:49;96648.00;;;12.09;47.87
20971;BME280;10644;48.834;10.088;2023-04-07T01:37:16;96645.78;;;12.17;48.68
20971;BME280;10644;48.834;10.088;2023-04-07T01:39:41;96645.41;;;12.23;48.45
20971;BME280;10644;48.834;10.088;2023-04-07T01:42:07;96649.81;;;12.35;48.17
20971;BME280;10644;48.834;10.088;2023-04-07T01:44:34;96644.56;;;12.37;48.58
20971;BME280;10644;48.834;10.088;2023-04-07T01:47:00;96624.59;;;12.28;49.15
20971;BME280;10644;48.834;10.088;2023-04-07T01:49:27;96638.63;;;12.22;50.30
20971;BME280;10644;48.834;10.088;2023-04-07T01:51:54;96627.91;;;12.16;48.91
20971;BME280;10644;48.834;10.088;2023-04-07T01:54:20;96619.41;;;12.01;50.41
20971;BME280;10644;48.834;10.088;2023-04-07T01:56:46;96620.50;;;11.69;50.80
20971;BME280;10644;48.834;10.088;2023-04-07T01:59:11;96613.19;;;11.63;50.25
20971;BME280;10644;48.834;10.088;2023-04-07T02:01:37;96619.94;;;11.64;50.50
20971;BME280;10644;48.834;10.088;2023-04-07T02:06:34;96619.34;;;11.45;50.92
20971;BME280;10644;48.834;10.088;2023-04-07T02:09:06;96609.91;;;11.46;51.20
20971;BME280;10644;48.834;10.088;2023-04-07T02:11:33;96617.03;;;11.41;51.54
20971;BME280;10644;48.834;10.088;2023-04-07T02:14:01;96606.34;;;11.34;51.29
20971;BME280;10644;48.834;10.088;2023-04-07T02:16:31;96623.47;;;11.48;51.23
20971;BME280;10644;48.834;10.088;2023-04-07T02:18:58;96609.09;;;11.45;51.28
20971;BME280;10644;48.834;10.088;2023-04-07T02:21:24;96615.88;;;11.46;51.78
20971;BME280;10644;48.834;10.088;2023-04-07T02:23:51;96609.09;;;11.45;51.61
20971;BME280;10644;48.834;10.088;2023-04-07T02:26:16;96602.66;;;11.38;51.61
20971;BME280;10644;48.834;10.088;2023-04-07T02:28:41;96605.38;;;11.21;53.66
20971;BME280;10644;48.834;10.088;2023-04-07T02:31:07;96603.28;;;11.28;52.86
20971;BME280;10644;48.834;10.088;2023-04-07T02:33:32;96590.38;;;11.29;53.55
20971;BME280;10644;48.834;10.088;2023-04-07T02:35:57;96591.56;;;11.24;53.55
20971;BME280;10644;48.834;10.088;2023-04-07T02:38:25;96585.22;;;11.15;52.63
20971;BME280;10644;48.834;10.088;2023-04-07T02:40:50;96588.19;;;11.23;52.97
20971;BME280;10644;48.834;10.088;2023-04-07T02:43:16;96586.53;;;11.22;52.98
20971;BME280;10644;48.834;10.088;2023-04-07T02:45:43;96583.88;;;11.24;53.88
20971;BME280;10644;48.834;10.088;2023-04-07T02:48:08;96578.66;;;11.11;53.82
20971;BME280;10644;48.834;10.088;2023-04-07T02:50:36;96573.03;;;11.05;54.34
20971;BME280;10644;48.834;10.088;2023-04-07T02:53:01;96584.84;;;10.78;55.10
20971;BME280;10644;48.834;10.088;2023-04-07T02:55:27;96569.41;;;10.93;53.67
20971;BME280;10644;48.834;10.088;2023-04-07T02:57:52;96569.47;;;10.78;56.03
20971;BME280;10644;48.834;10.088;2023-04-07T03:00:17;96572.31;;;10.73;56.11
20971;BME280;10644;48.834;10.088;2023-04-07T03:02:43;96572.81;;;10.64;56.30
20971;BME280;10644;48.834;10.088;2023-04-07T03:05:08;96572.44;;;10.86;54.95
20971;BME280;10644;48.834;10.088;2023-04-07T03:07:33;96572.38;;;11.01;55.61
20971;BME280;10644;48.834;10.088;2023-04-07T03:09:59;96564.78;;;11.00;55.34
20971;BME280;10644;48.834;10.088;2023-04-07T03:12:24;96561.59;;;11.10;54.55
20971;BME280;10644;48.834;10.088;2023-04-07T03:14:52;96566.28;;;11.18;53.97
20971;BME280;10644;48.834;10.088;2023-04-07T03:17:17;96557.66;;;11.05;54.96
20971;BME280;10644;48.834;10.088;2023-04-07T03:19:42;96559.19;;;10.93;56.38
20971;BME280;10644;48.834;10.088;2023-04-07T03:22:08;96544.44;;;10.97;55.88
20971;BME280;10644;48.834;10.088;2023-04-07T03:24:33;96552.94;;;10.83;56.26
20971;BME280;10644;48.834;10.088;2023-04-07T03:26:58;96551.25;;;10.98;55.56
20971;BME280;10644;48.834;10.088;2023-04-07T03:29:24;96542.41;;;11.17;55.19
20971;BME280;10644;48.834;10.088;2023-04-07T03:31:49;96550.97;;;11.16;55.70
20971;BME280;10644;48.834;10.088;2023-04-07T03:34:14;96540.91;;;11.13;55.74
20971;BME280;10644;48.834;10.088;2023-04-07T03:36:40;96544.69;;;11.22;55.66
20971;BME280;10644;48.834;10.088;2023-04-07T03:39:05;96529.94;;;11.25;55.15
20971;BME280;10644;48.834;10.088;2023-04-07T03:41:30;96531.22;;;11.32;55.34
20971;BME280;10644;48.834;10.088;2023-04-07T03:43:56;96530.84;;;11.38;54.98
20971;BME280;10644;48.834;10.088;2023-04-07T03:46:22;96535.09;;;11.39;55.30
20971;BME280;10644;48.834;10.088;2023-04-07T03:48:47;96539.09;;;11.43;55.67
20971;BME280;10644;48.834;10.088;2023-04-07T03:51:14;96534.31;;;11.09;56.05
20971;BME280;10644;48.834;10.088;2023-04-07T03:53:39;96546.31;;;11.09;55.96
20971;BME280;10644;48.834;10.088;2023-04-07T03:56:05;96532.31;;;11.14;55.63
20971;BME280;10644;48.834;10.088;2023-04-07T03:58:31;96538.16;;;11.16;55.56
20971;BME280;10644;48.834;10.088;2023-04-07T04:00:56;96521.91;;;11.17;55.52
20971;BME280;10644;48.834;10.088;2023-04-07T04:03:22;96532.84;;;11.05;57.29
20971;BME280;10644;48.834;10.088;2023-04-07T04:05:47;96509.69;;;10.63;57.83
20971;BME280;10644;48.834;10.088;2023-04-07T04:08:15;96510.47;;;10.79;57.17
20971;BME280;10644;48.834;10.088;2023-04-07T04:10:40;96518.81;;;10.97;56.85
20971;BME280;10644;48.834;10.088;2023-04-07T04:13:05;96519.69;;;11.11;56.32
20971;BME280;10644;48.834;10.088;2023-04-07T04:15:32;96513.66;;;11.12;58.60
20971;BME280;10644;48.834;10.088;2023-04-07T04:17:57;96512.91;;;11.24;57.38
20971;BME280;10644;48.834;10.088;2023-04-07T04:20:23;96507.97;;;11.21;57.75
20971;BME280;10644;48.834;10.088;2023-04-07T04:22:48;96514.91;;;11.33;56.33
20971;BME280;10644;48.834;10.088;2023-04-07T04:25:15;96510.16;;;11.13;56.90
20971;BME280;10644;48.834;10.088;2023-04-07T04:27:41;96514.72;;;11.08;57.50
20971;BME280;10644;48.834;10.088;2023-04-07T04:30:07;96513.66;;;11.12;56.91
20971;BME280;10644;48.834;10.088;2023-04-07T04:32:32;96501.00;;;11.09;57.49
20971;BME280;10644;48.834;10.088;2023-04-07T04:34:58;96507.50;;;10.71;58.24
20971;BME280;10644;48.834;10.088;2023-04-07T04:37:24;96502.75;;;10.65;58.23
20971;BME280;10644;48.834;10.088;2023-04-07T04:39:51;96505.00;;;10.85;57.24
20971;BME280;10644;48.834;10.088;2023-04-07T04:42:17;96518.13;;;11.09;56.68
20971;BME280;10644;48.834;10.088;2023-04-07T04:44:42;96509.44;;;11.25;56.30
20971;BME280;10644;48.834;10.088;2023-04-07T04:47:07;96512.91;;;11.24;57.01
20971;BME280;10644;48.834;10.088;2023-04-07T04:49:35;96505.03;;;11.13;57.00
20971;BME280;10644;48.834;10.088;2023-04-07T04:52:00;96503.03;;;11.18;56.49
20971;BME280;10644;48.834;10.088;2023-04-07T04:54:26;96521.41;;;11.11;57.50
20971;BME280;10644;48.834;10.088;2023-04-07T04:56:51;96511.63;;;11.17;56.88
20971;BME280;10644;48.834;10.088;2023-04-07T04:59:16;96513.09;;;11.21;56.85
20971;BME280;10644;48.834;10.088;2023-04-07T05:01:42;96514.00;;;11.06;56.76
20971;BME280;10644;48.834;10.088;2023-04-07T05:04:07;96512.44;;;11.18;56.60
20971;BME280;10644;48.834;10.088;2023-04-07T05:06:34;96523.66;;;11.31;56.80
20971;BME280;10644;48.834;10.088;2023-04-07T05:09:00;96521.59;;;11.36;56.59
20971;BME280;10644;48.834;10.088;2023-04-07T05:11:28;96518.97;;;11.37;56.09
20971;BME280;10644;48.834;10.088;2023-04-07T05:13:53;96516.59;;;11.34;56.81
20971;BME280;10644;48.834;10.088;2023-04-07T05:16:18;96513.88;;;11.08;57.76
20971;BME280;10644;48.834;10.088;2023-04-07T05:18:44;96528.28;;;11.10;57.14
20971;BME280;10644;48.834;10.088;2023-04-07T05:21:09;96515.94;;;11.17;56.73
20971;BME280;10644;48.834;10.088;2023-04-07T05:23:35;96516.19;;;11.26;56.59
20971;BME280;10644;48.834;10.088;2023-04-07T05:26:00;96519.31;;;11.31;56.47
20971;BME280;10644;48.834;10.088;2023-04-07T05:28:25;96516.94;;;11.42;56.25
20971;BME280;10644;48.834;10.088;2023-04-07T05:30:51;96520.88;;;11.20;57.48
20971;BME280;10644;48.834;10.088;2023-04-07T05:33:16;96519.03;;;11.22;57.49
20971;BME280;10644;48.834;10.088;2023-04-07T05:35:45;96510.53;;;11.35;57.43
20971;BME280;10644;48.834;10.088;2023-04-07T05:38:11;96515.75;;;11.48;56.89
20971;BME280;10644;48.834;10.088;2023-04-07T05:40:38;96525.03;;;11.64;56.30
20971;BME280;10644;48.834;10.088;2023-04-07T05:43:04;96517.66;;;11.58;56.40
20971;BME280;10644;48.834;10.088;2023-04-07T05:45:29;96524.47;;;11.59;56.44
20971;BME280;10644;48.834;10.088;2023-04-07T05:47:56;96525.13;;;11.63;56.59
20971;BME280;10644;48.834;10.088;2023-04-07T05:50:22;96519.19;;;11.62;56.25
20971;BME280;10644;48.834;10.088;2023-04-07T05:52:47;96505.75;;;11.43;56.74
20971;BME280;10644;48.834;10.088;2023-04-07T05:55:12;96514.16;;;11.03;59.03
20971;BME280;10644;48.834;10.088;2023-04-07T05:57:38;96514.59;;;10.82;59.33
20971;BME280;10644;48.834;10.088;2023-04-07T06:00:03;96520.50;;;10.98;58.87
20971;BME280;10644;48.834;10.088;2023-04-07T06:02:29;96507.50;;;11.15;58.24
20971;BME280;10644;48.834;10.088;2023-04-07T06:04:54;96503.78;;;11.34;57.63
20971;BME280;10644;48.834;10.088;2023-04-07T06:07:20;96512.00;;;11.25;58.34
20971;BME280;10644;48.834;10.088;2023-04-07T06:09:45;96511.00;;;11.28;58.47
20971;BME280;10644;48.834;10.088;2023-04-07T06:12:11;96510.91;;;11.29;58.03
20971;BME280;10644;48.834;10.088;2023-04-07T06:14:37;96495.16;;;11.35;57.68
20971;BME280;10644;48.834;10.088;2023-04-07T06:17:02;96501.56;;;11.42;58.23
20971;BME280;10644;48.834;10.088;2023-04-07T06:19:28;96507.34;;;11.32;58.62
20971;BME280;10644;48.834;10.088;2023-04-07T06:21:53;96507.59;;;11.13;59.13
20971;BME280;10644;48.834;10.088;2023-04-07T06:24:18;96521.66;;;10.92;60.49
20971;BME280;10644;48.834;10.088;2023-04-07T06:26:47;96512.81;;;11.12;59.50
20971;BME280;10644;48.834;10.088;2023-04-07T06:29:12;96512.91;;;11.24;58.73
20971;BME280;10644;48.834;10.088;2023-04-07T06:31:37;96519.88;;;11.36;59.02
20971;BME280;10644;48.834;10.088;2023-04-07T06:34:05;96506.59;;;11.30;59.12
20971;BME280;10644;48.834;10.088;2023-04-07T06:36:30;96512.09;;;11.24;59.41
20971;BME280;10644;48.834;10.088;2023-04-07T06:38:57;96506.13;;;11.37;59.10
20971;BME280;10644;48.834;10.088;2023-04-07T06:41:23;96510.34;;;11.52;58.31
20971;BME280;10644;48.834;10.088;2023-04-07T06:43:49;96501.66;;;11.27;60.42
20971;BME280;10644;48.834;10.088;2023-04-07T06:46:15;96508.13;;;11.04;61.10
20971;BME280;10644;48.834;10.088;2023-04-07T06:48:41;96507.50;;;10.71;61.86
20971;BME280;10644;48.834;10.088;2023-04-07T06:51:06;96507.72;;;10.68;61.85
20971;BME280;10644;48.834;10.088;2023-04-07T06:53:32;96513.19;;;10.62;62.41
20971;BME280;10644;48.834;10.088;2023-04-07T06:56:09;96511.19;;;10.67;61.81
20971;BME280;10644;48.834;10.088;2023-04-07T06:58:37;96517.25;;;10.80;61.58
20971;BME280;10644;48.834;10.088;2023-04-07T07:01:03;96508.19;;;10.89;61.00
20971;BME280;10644;48.834;10.088;2023-04-07T07:03:29;96516.72;;;11.03;60.86
20971;BME280;10644;48.834;10.088;2023-04-07T07:05:59;96513.28;;;11.18;60.21
20971;BME280;10644;48.834;10.088;2023-04-07T07:08:25;96515.03;;;11.32;60.05
20971;BME280;10644;48.834;10.088;2023-04-07T07:10:51;96518.97;;;11.37;60.05
20971;BME280;10644;48.834;10.088;2023-04-07T07:13:17;96515.09;;;11.44;59.60
20971;BME280;10644;48.834;10.088;2023-04-07T07:15:43;96511.19;;;11.39;59.75
20971;BME280;10644;48.834;10.088;2023-04-07T07:18:09;96509.25;;;11.42;60.43
20971;BME280;10644;48.834;10.088;2023-04-07T07:20:34;96505.69;;;11.45;60.04
20971;BME280;10644;48.834;10.088;2023-04-07T07:23:00;96518.69;;;11.56;59.92
20971;BME280;10644;48.834;10.088;2023-04-07T07:25:26;96510.44;;;11.23;60.91
20971;BME280;10644;48.834;10.088;2023-04-07T07:27:52;96527.41;;;11.39;60.48
20971;BME280;10644;48.834;10.088;2023-04-07T07:30:21;96518.03;;;11.52;59.95
20971;BME280;10644;48.834;10.088;2023-04-07T07:32:47;96511.28;;;11.51;60.13
20971;BME280;10644;48.834;10.088;2023-04-07T07:35:13;96518.75;;;11.54;60.74
20971;BME280;10644;48.834;10.088;2023-04-07T07:37:38;96517.16;;;11.39;61.57
20971;BME280;10644;48.834;10.088;2023-04-07T07:40:04;96502.81;;;11.49;61.05
20971;BME280;10644;48.834;10.088;2023-04-07T07:42:30;96530.94;;;11.51;61.56
20971;BME280;10644;48.834;10.088;2023-04-07T07:44:55;96525.94;;;11.63;61.06
20971;BME280;10644;48.834;10.088;2023-04-07T07:47:21;96527.41;;;11.67;60.21
20971;BME280;10644;48.834;10.088;2023-04-07T07:49:46;96525.56;;;11.69;60.13
20971;BME280;10644;48.834;10.088;2023-04-07T07:52:12;96524.66;;;11.56;62.30
20971;BME280;10644;48.834;10.088;2023-04-07T07:54:37;96522.16;;;11.55;61.70
20971;BME280;10644;48.834;10.088;2023-04-07T07:57:03;96519.81;;;11.66;60.88
20971;BME280;10644;48.834;10.088;2023-04-07T07:59:29;96531.59;;;11.54;61.82
20971;BME280;10644;48.834;10.088;2023-04-07T08:01:54;96528.31;;;11.52;61.97
20971;BME280;10644;48.834;10.088;2023-04-07T08:04:20;96532.00;;;11.62;62.59
20971;BME280;10644;48.834;10.088;2023-04-07T08:06:47;96523.81;;;11.56;61.96
20971;BME280;10644;48.834;10.088;2023-04-07T08:09:12;96522.28;;;11.39;62.17
20971;BME280;10644;48.834;10.088;2023-04-07T08:11:38;96527.59;;;11.64;61.12
20971;BME280;10644;48.834;10.088;2023-04-07T08:14:03;96536.56;;;11.85;60.84
20971;BME280;10644;48.834;10.088;2023-04-07T08:16:28;96533.44;;;11.80;61.11
20971;BME280;10644;48.834;10.088;2023-04-07T08:18:54;96538.00;;;11.89;60.96
20971;BME280;10644;48.834;10.088;2023-04-07T08:21:19;96537.56;;;11.83;61.40
20971;BME280;10644;48.834;10.088;2023-04-07T08:23:47;96535.53;;;11.88;61.22
20971;BME280;10644;48.834;10.088;2023-04-07T08:26:13;96536.97;;;12.06;60.92
20971;BME280;10644;48.834;10.088;2023-04-07T08:28:38;96543.50;;;11.83;62.48
20971;BME280;10644;48.834;10.088;2023-04-07T08:31:03;96540.03;;;11.70;63.38
20971;BME280;10644;48.834;10.088;2023-04-07T08:33:29;96542.84;;;11.52;63.31
20971;BME280;10644;48.834;10.088;2023-04-07T08:35:55;96540.69;;;11.74;62.49
20971;BME280;10644;48.834;10.088;2023-04-07T08:38:20;96539.03;;;11.59;63.38
20971;BME280;10644;48.834;10.088;2023-04-07T08:40:48;96543.81;;;11.65;63.30
20971;BME280;10644;48.834;10.088;2023-04-07T08:43:21;96539.59;;;11.78;61.89
20971;BME280;10644;48.834;10.088;2023-04-07T08:45:47;96531.81;;;11.79;61.94
20971;BME280;10644;48.834;10.088;2023-04-07T08:48:17;96529.19;;;11.93;61.13
20971;BME280;10644;48.834;10.088;2023-04-07T08:50:48;96529.56;;;12.01;60.85
20971;BME280;10644;48.834;10.088;2023-04-07T08:53:18;96532.63;;;12.20;61.28
20971;BME280;10644;48.834;10.088;2023-04-07T08:55:47;96528.97;;;12.37;60.12
20971;BME280;10644;48.834;10.088;2023-04-07T08:58:13;96535.63;;;12.53;59.21
20971;BME280;10644;48.834;10.088;2023-04-07T09:00:42;96526.59;;;12.60;59.09
20971;BME280;10644;48.834;10.088;2023-04-07T09:03:10;96537.81;;;12.59;58.85
20971;BME280;10644;48.834;10.088;2023-04-07T09:05:35;96539.84;;;12.54;58.33
20971;BME280;10644;48.834;10.088;2023-04-07T09:08:02;96528.84;;;12.52;58.50
20971;BME280;10644;48.834;10.088;2023-04-07T09:10:27;96539.03;;;12.66;58.75
20971;BME280;10644;48.834;10.088;2023-04-07T09:12:53;96533.41;;;12.74;58.70
20971;BME280;10644;48.834;10.088;2023-04-07T09:15:19;96531.69;;;12.87;58.68
20971;BME280;10644;48.834;10.088;2023-04-07T09:17:45;96529.72;;;12.90;57.82
20971;BME280;10644;48.834;10.088;2023-04-07T09:20:11;96525.22;;;12.93;58.05
20971;BME280;10644;48.834;10.088;2023-04-07T09:22:41;96528.88;;;13.04;57.87
20971;BME280;10644;48.834;10.088;2023-04-07T09:25:20;96529.72;;;13.17;57.99
20971;BME280;10644;48.834;10.088;2023-04-07T09:28:01;96527.16;;;13.17;57.71
20971;BME280;10644;48.834;10.088;2023-04-07T09:30:32;96521.06;;;13.18;58.42
20971;BME280;10644;48.834;10.088;2023-04-07T09:32:58;96531.44;;;13.16;58.00
20971;BME280;10644;48.834;10.088;2023-04-07T09:35:24;96532.91;;;13.20;57.47
20971;BME280;10644;48.834;10.088;2023-04-07T09:38:06;96529.00;;;13.27;57.61
20971;BME280;10644;48.834;10.088;2023-04-07T09:40:32;96524.03;;;13.24;57.54
20971;BME280;10644;48.834;10.088;2023-04-07T09:43:13;96536.41;;;13.19;57.60
20971;BME280;10644;48.834;10.088;2023-04-07T09:45:41;96525.91;;;13.22;58.65
20971;BME280;10644;48.834;10.088;2023-04-07T09:48:08;96528.78;;;13.18;58.84
20971;BME280;10644;48.834;10.088;2023-04-07T09:50:42;96529.31;;;13.23;58.69
20971;BME280;10644;48.834;10.088;2023-04-07T09:53:10;96530.22;;;13.34;58.18
20971;BME280;10644;48.834;10.088;2023-04-07T09:55:35;96527.97;;;13.42;57.57
20971;BME280;10644;48.834;10.088;2023-04-07T09:58:03;96533.13;;;13.42;57.53
20971;BME280;10644;48.834;10.088;2023-04-07T10:00:28;96525.41;;;13.42;57.86
20971;BME280;10644;48.834;10.088;2023-04-07T10:02:54;96525.06;;;13.47;57.29
20971;BME280;10644;48.834;10.088;2023-04-07T10:05:20;96534.53;;;13.58;57.77
20971;BME280;10644;48.834;10.088;2023-04-07T10:07:46;96529.91;;;13.51;56.68
20971;BME280;10644;48.834;10.088;2023-04-07T10:10:14;96526.81;;;13.46;57.21
20971;BME280;10644;48.834;10.088;2023-04-07T10:12:41;96543.78;;;13.61;57.27
20971;BME280;10644;48.834;10.088;2023-04-07T10:15:16;96537.38;;;13.79;56.88
20971;BME280;10644;48.834;10.088;2023-04-07T10:18:14;96529.97;;;13.87;56.33
20971;BME280;10644;48.834;10.088;2023-04-07T10:20:58;96520.97;;;13.92;56.67
20971;BME280;10644;48.834;10.088;2023-04-07T10:26:58;96541.31;;;13.72;54.63
20971;BME280;10644;48.834;10.088;2023-04-07T10:29:28;96536.16;;;13.59;55.88
20971;BME280;10644;48.834;10.088;2023-04-07T10:31:55;96544.22;;;13.68;56.79
20971;BME280;10644;48.834;10.088;2023-04-07T10:37:14;96543.38;;;13.79;57.06
20971;BME280;10644;48.834;10.088;2023-04-07T10:39:42;96538.41;;;13.89;56.29
20971;BME280;10644;48.834;10.088;2023-04-07T10:45:05;96550.78;;;13.71;55.28
20971;BME280;10644;48.834;10.088;2023-04-07T10:47:30;96547.91;;;13.63;55.58
20971;BME280;10644;48.834;10.088;2023-04-07T10:55:33;96541.16;;;13.98;56.01
20971;BME280;10644;48.834;10.088;2023-04-07T10:58:23;96535.13;;;14.23;55.67
20971;BME280;10644;48.834;10.088;2023-04-07T11:06:06;96552.63;;;14.18;54.81
20971;BME280;10644;48.834;10.088;2023-04-07T11:08:33;96553.16;;;13.87;54.64
20971;BME280;10644;48.834;10.088;2023-04-07T11:10:58;96544.56;;;13.99;55.11
20971;BME280;10644;48.834;10.088;2023-04-07T11:13:24;96552.13;;;14.13;55.50
20971;BME280;10644;48.834;10.088;2023-04-07T11:15:50;96547.41;;;14.07;55.44
20971;BME280;10644;48.834;10.088;2023-04-07T11:18:20;96545.78;;;14.06;55.37
20971;BME280;10644;48.834;10.088;2023-04-07T11:20:54;96548.84;;;14.11;55.38
20971;BME280;10644;48.834;10.088;2023-04-07T11:23:21;96546.31;;;13.98;55.07
20971;BME280;10644;48.834;10.088;2023-04-07T11:25:49;96550.75;;;13.96;55.88
20971;BME280;10644;48.834;10.088;2023-04-07T11:28:15;96545.97;;;14.03;55.74
20971;BME280;10644;48.834;10.088;2023-04-07T11:30:49;96548.03;;;14.10;55.64
20971;BME280;10644;48.834;10.088;2023-04-07T11:33:20;96539.50;;;14.10;55.77
20971;BME280;10644;48.834;10.088;2023-04-07T11:38:18;96541.03;;;13.52;56.10
20971;BME280;10644;48.834;10.088;2023-04-07T11:40:44;96537.00;;;13.60;55.77
20971;BME280;10644;48.834;10.088;2023-04-07T11:43:22;96534.28;;;13.74;56.78
20971;BME280;10644;48.834;10.088;2023-04-07T11:48:33;96546.84;;;13.91;55.77
20971;BME280;10644;48.834;10.088;2023-04-07T11:50:59;96541.00;;;14.25;55.21
20971;BME280;10644;48.834;10.088;2023-04-07T11:53:33;96541.91;;;14.60;55.00
20971;BME280;10644;48.834;10.088;2023-04-07T11:56:09;96544.00;;;14.55;54.90
20971;BME280;10644;48.834;10.088;2023-04-07T11:58:36;96552.88;;;14.51;54.70
20971;BME280;10644;48.834;10.088;2023-04-07T12:01:04;96547.72;;;14.15;54.71
20971;BME280;10644;48.834;10.088;2023-04-07T12:03:33;96540.56;;;14.31;54.63
20971;BME280;10644;48.834;10.088;2023-04-07T12:06:00;96534.75;;;14.40;54.26
20971;BME280;10644;48.834;10.088;2023-04-07T12:08:45;96539.78;;;14.65;53.96
20971;BME280;10644;48.834;10.088;2023-04-07T12:11:12;96534.97;;;14.84;54.23
20971;BME280;10644;48.834;10.088;2023-04-07T12:13:38;96537.44;;;14.62;54.25
20971;BME280;10644;48.834;10.088;2023-04-07T12:16:04;96535.22;;;14.57;54.36
20971;BME280;10644;48.834;10.088;2023-04-07T12:18:29;96534.56;;;14.43;54.54
20971;BME280;10644;48.834;10.088;2023-04-07T12:20:55;96537.28;;;14.29;53.77
20971;BME280;10644;48.834;10.088;2023-04-07T12:23:24;96534.00;;;14.14;54.00
20971;BME280;10644;48.834;10.088;2023-04-07T12:25:52;96525.94;;;14.31;53.62
20971;BME280;10644;48.834;10.088;2023-04-07T12:28:18;96530.25;;;14.31;53.64
20971;BME280;10644;48.834;10.088;2023-04-07T12:30:43;96531.69;;;14.35;54.44
20971;BME280;10644;48.834;10.088;2023-04-07T12:33:08;96532.25;;;14.51;53.86
20971;BME280;10644;48.834;10.088;2023-04-07T12:35:34;96524.41;;;14.52;53.67
20971;BME280;10644;48.834;10.088;2023-04-07T12:38:01;96534.69;;;14.29;54.00
20971;BME280;10644;48.834;10.088;2023-04-07T12:40:27;96522.88;;;14.50;53.82
20971;BME280;10644;48.834;10.088;2023-04-07T12:42:53;96531.34;;;14.63;54.35
20971;BME280;10644;48.834;10.088;2023-04-07T12:45:18;96519.25;;;14.87;52.39
20971;BME280;10644;48.834;10.088;2023-04-07T12:47:44;96520.38;;;14.72;51.73
20971;BME280;10644;48.834;10.088;2023-04-07T12:50:09;96516.94;;;14.95;51.76
20971;BME280;10644;48.834;10.088;2023-04-07T12:52:35;96515.75;;;14.88;50.96
20971;BME280;10644;48.834;10.088;2023-04-07T12:55:03;96519.75;;;15.03;51.75
20971;BME280;10644;48.834;10.088;2023-04-07T12:57:28;96512.75;;;15.27;51.63
20971;BME280;10644;48.834;10.088;2023-04-07T12:59:54;96518.94;;;15.48;51.09
20971;BME280;10644;48.834;10.088;2023-04-07T13:02:19;96502.72;;;15.35;50.56
20971;BME280;10644;48.834;10.088;2023-04-07T13:04:45;96509.69;;;15.00;50.62
20971;BME280;10644;48.834;10.088;2023-04-07T13:07:14;96511.53;;;14.98;52.26
20971;BME280;10644;48.834;10.088;2023-04-07T13:09:41;96497.03;;;15.08;51.24
20971;BME280;10644;48.834;10.088;2023-04-07T13:12:10;96503.38;;;15.15;51.34
20971;BME280;10644;48.834;10.088;2023-04-07T13:14:40;96501.56;;;15.39;51.44
20971;BME280;10644;48.834;10.088;2023-04-07T13:17:06;96506.03;;;15.48;50.11
20971;BME280;10644;48.834;10.088;2023-04-07T13:19:32;96510.47;;;15.35;50.93
20971;BME280;10644;48.834;10.088;2023-04-07T13:21:58;96500.16;;;15.35;50.31
20971;BME280;10644;48.834;10.088;2023-04-07T13:24:23;96503.03;;;15.08;51.09